createdAt,value
2022-10-16T00:02:23.833Z,16.05
2022-10-16T00:04:58.833Z,18.70
2022-10-16T00:07:33.601Z,15.60
2022-10-16T00:10:14.789Z,16.10
2022-10-16T00:12:50.065Z,15.43
2022-10-16T00:15:27.626Z,19.88
2022-10-16T00:18:01.725Z,16.80
2022-10-16T00:20:38.326Z,16.52
2022-10-16T00:23:13.708Z,15.10
2022-10-16T00:25:48.739Z,15.25
2022-10-16T00:28:24.256Z,14.88
2022-10-16T00:31:03.221Z,16.23
2022-10-16T00:33:37.781Z,17.88
2022-10-16T00:36:14.229Z,12.75
2022-10-16T00:38:49.190Z,15.70
2022-10-16T00:41:24.416Z,13.45
2022-10-16T00:43:59.665Z,14.48
2022-10-16T00:46:39.484Z,15.10
2022-10-16T00:49:16.448Z,15.13
2022-10-16T00:51:51.829Z,12.95
2022-10-16T00:54:27.595Z,13.20
2022-10-16T00:57:05.025Z,16.15
2022-10-16T00:59:42.674Z,14.30
2022-10-16T01:02:22.630Z,14.52
2022-10-16T01:04:57.892Z,14.15
2022-10-16T01:07:39.021Z,18.40
2022-10-16T01:10:18.182Z,12.85
2022-10-16T01:12:55.049Z,12.55
2022-10-16T01:15:31.316Z,11.57
2022-10-16T01:18:13.248Z,11.25
2022-10-16T01:20:47.010Z,10.40
2022-10-16T01:23:31.968Z,13.95
2022-10-16T01:26:31.551Z,9.80
2022-10-16T01:29:11.922Z,11.90
2022-10-16T01:31:47.367Z,11.60
2022-10-16T01:34:24.923Z,10.27
2022-10-16T01:37:01.079Z,11.87
2022-10-16T01:39:38.481Z,12.05
2022-10-16T01:42:15.877Z,11.30
2022-10-16T01:44:53.288Z,8.80
2022-10-16T01:47:30.002Z,9.30
2022-10-16T01:50:06.022Z,9.50
2022-10-16T01:55:21.032Z,10.90
2022-10-16T01:57:56.457Z,10.70
2022-10-16T02:00:34.772Z,7.45
2022-10-16T02:03:11.264Z,8.90
2022-10-16T02:05:46.690Z,9.32
2022-10-16T02:08:21.197Z,9.57
2022-10-16T02:10:56.446Z,7.60
2022-10-16T02:13:36.296Z,8.10
2022-10-16T02:16:14.547Z,9.65
2022-10-16T02:18:51.521Z,7.55
2022-10-16T02:21:29.498Z,10.05
2022-10-16T02:24:06.961Z,9.18
2022-10-16T02:26:45.386Z,7.45
2022-10-16T02:29:23.271Z,11.17
2022-10-16T02:32:03.797Z,7.65
2022-10-16T02:34:38.608Z,7.90
2022-10-16T02:37:14.041Z,8.15
2022-10-16T02:39:48.908Z,11.45
2022-10-16T02:42:23.145Z,11.40
2022-10-16T02:45:01.748Z,8.88
2022-10-16T02:47:41.680Z,10.70
2022-10-16T02:50:17.946Z,12.75
2022-10-16T02:52:52.546Z,11.80
2022-10-16T02:55:29.359Z,10.27
2022-10-16T02:58:06.017Z,11.02
2022-10-16T03:00:42.434Z,9.15
2022-10-16T03:03:20.881Z,10.02
2022-10-16T03:05:55.024Z,9.10
2022-10-16T03:08:31.076Z,9.95
2022-10-16T03:13:43.024Z,10.73
2022-10-16T03:16:19.710Z,12.15
2022-10-16T03:18:56.834Z,10.65
2022-10-16T03:21:30.981Z,9.45
2022-10-16T03:24:07.667Z,10.73
2022-10-16T03:26:42.774Z,12.02
2022-10-16T03:29:17.948Z,13.15
2022-10-16T03:31:52.923Z,10.30
2022-10-16T03:34:32.559Z,11.13
2022-10-16T03:37:08.148Z,11.75
2022-10-16T03:39:44.263Z,9.80
2022-10-16T03:42:19.718Z,12.77
2022-10-16T03:44:55.699Z,11.57
2022-10-16T03:47:31.272Z,10.25
2022-10-16T03:50:12.429Z,12.75
2022-10-16T03:52:46.856Z,10.35
2022-10-16T03:55:20.824Z,14.10
2022-10-16T03:57:57.259Z,12.00
2022-10-16T04:00:35.921Z,10.67
2022-10-16T04:03:05.154Z,10.98
2022-10-16T04:05:45.784Z,9.30
2022-10-16T04:08:21.046Z,11.32
2022-10-16T04:10:58.556Z,11.98
2022-10-16T04:13:35.103Z,13.20
2022-10-16T04:16:10.879Z,10.90
2022-10-16T04:18:44.952Z,9.48
2022-10-16T04:21:21.815Z,10.20
2022-10-16T04:23:59.139Z,11.50
2022-10-16T04:26:34.575Z,13.20
2022-10-16T04:29:13.088Z,11.20
2022-10-16T04:31:48.312Z,14.07
2022-10-16T04:34:26.277Z,12.63
2022-10-16T04:37:09.794Z,16.03
2022-10-16T04:39:46.115Z,16.27
2022-10-16T04:42:20.978Z,21.63
2022-10-16T04:44:55.819Z,14.83
2022-10-16T04:47:32.006Z,16.17
2022-10-16T04:50:06.434Z,14.88
2022-10-16T04:52:44.712Z,12.57
2022-10-16T04:55:21.776Z,12.30
2022-10-16T04:57:56.865Z,13.35
2022-10-16T05:00:31.635Z,14.05
2022-10-16T05:03:08.708Z,13.65
2022-10-16T05:05:48.058Z,12.45
2022-10-16T05:08:27.445Z,14.07
2022-10-16T05:11:06.585Z,11.18
2022-10-16T05:13:43.234Z,11.60
2022-10-16T05:16:19.137Z,11.10
2022-10-16T05:21:45.736Z,13.43
2022-10-16T05:24:23.886Z,9.38
2022-10-16T05:27:00.048Z,10.37
2022-10-16T05:29:35.326Z,10.25
2022-10-16T05:32:10.407Z,13.15
2022-10-16T05:34:46.113Z,13.05
2022-10-16T05:37:21.208Z,11.07
2022-10-16T05:39:56.728Z,9.73
2022-10-16T05:42:35.828Z,12.18
2022-10-16T05:45:12.216Z,10.00
2022-10-16T05:47:43.448Z,11.30
2022-10-16T05:50:18.215Z,12.20
2022-10-16T05:52:53.660Z,11.43
2022-10-16T05:55:29.403Z,14.60
2022-10-16T05:58:09.252Z,8.95
2022-10-16T06:00:47.152Z,9.47
2022-10-16T06:03:25.116Z,8.35
2022-10-16T06:06:00.120Z,11.13
2022-10-16T06:08:34.925Z,11.20
2022-10-16T06:11:09.901Z,8.10
2022-10-16T06:13:48.892Z,9.50
2022-10-16T06:16:24.190Z,8.70
2022-10-16T06:19:01.099Z,10.85
2022-10-16T06:21:35.216Z,10.88
2022-10-16T06:24:12.316Z,8.85
2022-10-16T06:26:51.869Z,9.85
2022-10-16T06:29:29.821Z,9.70
2022-10-16T06:32:07.486Z,7.95
2022-10-16T06:34:44.179Z,7.83
2022-10-16T06:37:19.869Z,8.70
2022-10-16T06:39:53.579Z,12.48
2022-10-16T06:42:29.804Z,12.55
2022-10-16T06:45:09.597Z,9.15
2022-10-16T06:47:44.357Z,14.25
2022-10-16T06:50:20.687Z,10.05
2022-10-16T06:52:55.932Z,10.52
2022-10-16T06:55:34.042Z,12.25
2022-10-16T06:58:10.251Z,10.00
2022-10-16T07:00:49.333Z,9.70
2022-10-16T07:03:24.789Z,10.35
2022-10-16T07:06:00.474Z,9.10
2022-10-16T07:08:36.864Z,9.77
2022-10-16T07:11:12.116Z,10.60
2022-10-16T07:13:50.816Z,11.55
2022-10-16T07:16:32.480Z,9.90
2022-10-16T07:19:10.380Z,8.48
2022-10-16T07:21:45.912Z,11.15
2022-10-16T07:24:23.190Z,8.85
2022-10-16T07:26:58.135Z,8.85
2022-10-16T07:29:32.423Z,14.77
2022-10-16T07:32:10.514Z,11.55
2022-10-16T07:34:46.970Z,8.27
2022-10-16T07:37:21.733Z,7.15
2022-10-16T07:39:59.967Z,10.30
2022-10-16T07:42:33.013Z,8.48
2022-10-16T07:45:08.369Z,7.15
2022-10-16T07:47:46.674Z,10.30
2022-10-16T07:50:21.143Z,5.55
2022-10-16T07:52:56.049Z,6.78
2022-10-16T07:55:32.227Z,5.13
2022-10-16T07:58:07.784Z,5.70
2022-10-16T08:00:44.352Z,7.72
2022-10-16T08:03:22.092Z,7.85
2022-10-16T08:05:59.123Z,7.78
2022-10-16T08:08:34.893Z,6.45
2022-10-16T08:11:10.206Z,5.97
2022-10-16T08:13:45.105Z,6.18
2022-10-16T08:16:19.702Z,5.80
2022-10-16T08:18:57.764Z,6.25
2022-10-16T08:21:34.737Z,6.63
2022-10-16T08:24:10.148Z,5.50
2022-10-16T08:26:45.908Z,5.57
2022-10-16T08:29:21.516Z,9.02
2022-10-16T08:31:57.311Z,4.85
2022-10-16T08:34:35.587Z,6.10
2022-10-16T08:37:12.579Z,3.93
2022-10-16T08:39:47.536Z,4.80
2022-10-16T08:42:33.812Z,7.60
2022-10-16T08:45:40.988Z,4.70
2022-10-16T08:48:21.175Z,6.80
2022-10-16T08:50:59.928Z,5.85
2022-10-16T08:53:38.057Z,4.45
2022-10-16T08:56:13.768Z,3.60
2022-10-16T09:01:45.307Z,3.75
2022-10-16T09:04:56.679Z,6.07
2022-10-16T09:07:26.521Z,5.53
2022-10-16T09:10:34.717Z,5.93
2022-10-16T09:13:16.130Z,3.85
2022-10-16T09:15:52.920Z,3.92
2022-10-16T09:18:32.669Z,3.90
2022-10-16T09:21:13.446Z,5.85
2022-10-16T09:23:54.426Z,3.60
2022-10-16T09:26:29.895Z,3.03
2022-10-16T09:29:06.151Z,6.38
2022-10-16T09:31:41.618Z,4.55
2022-10-16T09:34:24.319Z,3.65
2022-10-16T09:37:00.176Z,3.35
2022-10-16T09:42:14.204Z,2.50
2022-10-16T09:44:55.051Z,2.30
2022-10-16T09:47:30.579Z,2.75
2022-10-16T09:50:07.411Z,4.00
2022-10-16T09:52:47.359Z,4.40
2022-10-16T09:55:22.794Z,2.67
2022-10-16T09:58:02.389Z,2.70
2022-10-16T10:00:38.994Z,4.35
2022-10-16T10:03:15.341Z,3.55
2022-10-16T10:05:52.537Z,2.55
2022-10-16T10:08:28.005Z,2.35
2022-10-16T10:11:04.008Z,4.70
2022-10-16T10:13:46.547Z,3.40
2022-10-16T10:16:29.475Z,4.05
2022-10-16T10:19:04.531Z,2.33
2022-10-16T10:21:39.773Z,4.55
2022-10-16T10:24:17.012Z,2.22
2022-10-16T10:26:54.924Z,5.80
2022-10-16T10:29:51.403Z,5.05
2022-10-16T10:35:40.071Z,3.03
2022-10-16T10:38:23.153Z,1.97
2022-10-16T10:41:03.706Z,2.30
2022-10-16T10:43:47.715Z,1.80
2022-10-16T10:46:31.250Z,4.10
2022-10-16T10:49:40.170Z,3.45
2022-10-16T10:52:26.959Z,2.07
2022-10-16T10:55:11.378Z,2.00
2022-10-16T10:57:48.677Z,2.15
2022-10-16T11:00:26.217Z,2.43
2022-10-16T11:03:08.984Z,1.90
2022-10-16T11:05:47.598Z,3.28
2022-10-16T11:08:31.039Z,2.67
2022-10-16T11:11:12.100Z,2.28
2022-10-16T11:13:50.096Z,2.75
2022-10-16T11:16:26.975Z,3.00
2022-10-16T11:19:07.324Z,1.88
2022-10-16T11:21:54.266Z,4.00
2022-10-16T11:24:34.780Z,1.98
2022-10-16T11:27:11.631Z,2.35
2022-10-16T11:29:45.283Z,2.25
2022-10-16T11:32:26.833Z,2.53
2022-10-16T11:35:00.318Z,2.10
2022-10-16T11:37:40.998Z,2.08
2022-10-16T11:40:23.513Z,2.90
2022-10-16T11:43:00.083Z,6.03
2022-10-16T11:45:37.438Z,1.70
2022-10-16T11:48:17.086Z,3.25
2022-10-16T11:50:54.446Z,2.00
2022-10-16T11:53:41.821Z,2.40
2022-10-16T11:56:17.137Z,3.53
2022-10-16T11:58:51.489Z,2.75
2022-10-16T12:01:29.447Z,3.05
2022-10-16T12:04:18.304Z,2.05
2022-10-16T12:06:54.632Z,3.35
2022-10-16T12:09:33.202Z,3.53
2022-10-16T12:12:08.657Z,2.45
2022-10-16T12:15:03.849Z,3.20
2022-10-16T12:17:39.879Z,3.00
2022-10-16T12:20:28.492Z,2.80
2022-10-16T12:23:04.807Z,2.60
2022-10-16T12:25:47.670Z,2.53
2022-10-16T12:28:25.106Z,6.70
2022-10-16T12:30:57.643Z,2.65
2022-10-16T12:33:33.385Z,3.92
2022-10-16T12:38:43.183Z,3.10
2022-10-16T12:41:28.965Z,3.03
2022-10-16T12:44:03.279Z,2.60
2022-10-16T12:46:41.411Z,5.63
2022-10-16T12:49:26.824Z,3.00
2022-10-16T12:52:01.335Z,2.50
2022-10-16T12:54:39.243Z,4.30
2022-10-16T12:57:40.925Z,3.50
2022-10-16T13:00:20.338Z,3.85
2022-10-16T13:03:13.075Z,3.90
2022-10-16T13:05:52.645Z,3.13
2022-10-16T13:08:35.589Z,3.05
2022-10-16T13:11:12.361Z,3.55
2022-10-16T13:14:04.650Z,3.40
2022-10-16T13:16:50.431Z,3.50
2022-10-16T13:19:24.482Z,4.07
2022-10-16T13:22:03.486Z,4.43
2022-10-16T13:24:51.555Z,4.15
2022-10-16T13:27:31.420Z,3.40
2022-10-16T13:30:07.642Z,3.50
2022-10-16T13:32:44.501Z,4.20
2022-10-16T13:35:27.377Z,7.00
2022-10-16T13:38:18.001Z,3.95
2022-10-16T13:40:56.457Z,3.45
2022-10-16T13:43:33.228Z,3.17
2022-10-16T13:46:08.915Z,4.37
2022-10-16T13:51:19.836Z,3.28
2022-10-16T13:53:54.157Z,3.30
2022-10-16T13:56:30.139Z,3.78
2022-10-16T13:59:04.577Z,5.30
2022-10-16T14:01:39.494Z,3.38
2022-10-16T14:04:17.159Z,3.83
2022-10-16T14:06:53.090Z,5.80
2022-10-16T14:09:28.349Z,3.70
2022-10-16T14:12:04.319Z,4.50
2022-10-16T14:14:39.722Z,5.72
2022-10-16T14:17:18.270Z,5.80
2022-10-16T14:19:59.589Z,3.25
2022-10-16T14:22:38.807Z,4.15
2022-10-16T14:25:32.024Z,3.38
2022-10-16T14:28:07.925Z,2.95
2022-10-16T14:30:42.609Z,3.90
2022-10-16T14:33:25.169Z,3.80
2022-10-16T14:36:07.969Z,4.57
2022-10-16T14:38:42.793Z,3.20
2022-10-16T14:41:17.257Z,2.50
2022-10-16T14:43:54.960Z,4.55
2022-10-16T14:46:34.631Z,3.30
2022-10-16T14:49:16.983Z,4.78
2022-10-16T14:51:54.549Z,3.70
2022-10-16T14:54:29.125Z,4.00
2022-10-16T14:57:03.584Z,2.67
2022-10-16T14:59:39.605Z,4.93
2022-10-16T15:02:21.645Z,3.22
2022-10-16T15:04:56.114Z,2.92
2022-10-16T15:07:32.471Z,3.13
2022-10-16T15:10:08.301Z,4.10
2022-10-16T15:12:43.263Z,3.80
2022-10-16T15:15:39.248Z,5.13
2022-10-16T15:18:14.822Z,4.82
2022-10-16T15:20:48.867Z,4.45
2022-10-16T15:26:20.227Z,3.70
2022-10-16T15:28:54.601Z,4.53
2022-10-16T15:31:29.260Z,3.83
2022-10-16T15:34:05.499Z,4.78
2022-10-16T15:36:41.911Z,7.35
2022-10-16T15:39:20.308Z,6.60
2022-10-16T15:41:57.050Z,6.35
2022-10-16T15:44:31.564Z,4.65
2022-10-16T15:47:06.031Z,6.18
2022-10-16T15:49:40.978Z,4.97
2022-10-16T15:52:15.074Z,3.92
2022-10-16T15:54:54.271Z,5.85
2022-10-16T15:57:29.087Z,10.07
2022-10-16T16:00:05.331Z,7.05
2022-10-16T16:02:46.013Z,5.10
2022-10-16T16:05:20.005Z,7.03
2022-10-16T16:07:53.986Z,6.38
2022-10-16T16:10:30.490Z,6.80
2022-10-16T16:13:04.975Z,8.35
2022-10-16T16:15:38.825Z,5.05
2022-10-16T16:18:12.828Z,7.30
2022-10-16T16:20:46.854Z,7.00
2022-10-16T16:23:21.264Z,6.40
2022-10-16T16:26:11.365Z,8.30
2022-10-16T16:28:46.488Z,6.50
2022-10-16T16:33:52.879Z,7.88
2022-10-16T16:36:26.870Z,8.00
2022-10-16T16:39:01.005Z,7.78
2022-10-16T16:41:37.611Z,9.13
2022-10-16T16:44:12.974Z,8.38
2022-10-16T16:46:47.050Z,9.40
2022-10-16T16:49:20.856Z,8.55
2022-10-16T16:51:55.613Z,9.90
2022-10-16T16:54:32.261Z,7.97
2022-10-16T16:57:08.643Z,12.10
2022-10-16T16:59:42.799Z,7.80
2022-10-16T17:02:16.928Z,11.75
2022-10-16T17:04:51.942Z,13.13
2022-10-16T17:07:27.159Z,10.40
2022-10-16T17:10:01.866Z,9.00
2022-10-16T17:12:38.453Z,7.53
2022-10-16T17:15:13.702Z,9.90
2022-10-16T17:17:47.804Z,10.98
2022-10-16T17:20:21.837Z,9.27
2022-10-16T17:22:55.887Z,8.70
2022-10-16T17:25:32.045Z,10.35
2022-10-16T17:28:12.012Z,11.45
2022-10-16T17:30:45.951Z,10.75
2022-10-16T17:33:19.855Z,9.35
2022-10-16T17:35:53.855Z,9.88
2022-10-16T17:38:27.799Z,10.35
2022-10-16T17:41:01.865Z,9.40
2022-10-16T17:43:38.411Z,9.63
2022-10-16T17:46:12.899Z,9.90
2022-10-16T17:48:47.638Z,11.95
2022-10-16T17:51:22.780Z,11.15
2022-10-16T17:53:57.884Z,13.20
2022-10-16T17:56:32.271Z,11.30
2022-10-16T17:59:08.453Z,11.55
2022-10-16T18:01:46.382Z,16.63
2022-10-16T18:04:20.945Z,12.93
2022-10-16T18:06:56.357Z,10.10
2022-10-16T18:09:31.096Z,12.43
2022-10-16T18:12:05.345Z,12.43
2022-10-16T18:14:43.289Z,12.75
2022-10-16T18:17:19.708Z,11.50
2022-10-16T18:19:53.933Z,19.92
2022-10-16T18:22:29.488Z,12.13
2022-10-16T18:25:04.683Z,14.43
2022-10-16T18:27:39.232Z,13.32
2022-10-16T18:30:15.886Z,13.30
2022-10-16T18:32:50.204Z,14.60
2022-10-16T18:35:24.131Z,16.57
2022-10-16T18:38:00.935Z,14.25
2022-10-16T18:40:36.299Z,14.53
2022-10-16T18:43:11.826Z,15.65
2022-10-16T18:45:58.031Z,16.67
2022-10-16T18:48:27.560Z,15.55
2022-10-16T18:51:11.752Z,17.77
2022-10-16T18:53:48.663Z,16.25
2022-10-16T18:56:24.748Z,17.50
2022-10-16T18:59:00.374Z,16.17
2022-10-16T19:01:44.616Z,22.25
2022-10-16T19:04:24.098Z,17.00
2022-10-16T19:06:59.327Z,17.33
2022-10-16T19:09:34.277Z,17.63
2022-10-16T19:12:10.217Z,19.08
2022-10-16T19:14:44.815Z,19.15
2022-10-16T19:17:27.246Z,17.20
2022-10-16T19:20:03.188Z,17.20
2022-10-16T19:22:54.033Z,16.05
2022-10-16T19:25:29.429Z,14.90
2022-10-16T19:28:13.718Z,16.75
2022-10-16T19:30:50.639Z,25.95
2022-10-16T19:33:28.497Z,18.95
2022-10-16T19:36:14.584Z,17.38
2022-10-16T19:38:49.090Z,16.75
2022-10-16T19:41:25.278Z,15.80
2022-10-16T19:44:04.053Z,19.33
2022-10-16T19:46:36.628Z,18.45
2022-10-16T19:49:15.397Z,20.58
2022-10-16T19:51:52.087Z,23.58
2022-10-16T19:54:26.644Z,22.50
2022-10-16T19:57:02.170Z,19.30
2022-10-16T19:59:38.047Z,19.13
2022-10-16T20:02:14.500Z,19.65
2022-10-16T20:04:53.214Z,17.00
2022-10-16T20:07:29.221Z,20.85
2022-10-16T20:10:06.193Z,20.35
2022-10-16T20:12:40.689Z,17.50
2022-10-16T20:15:15.748Z,19.13
2022-10-16T20:17:50.711Z,23.95
2022-10-16T20:20:28.012Z,24.65
2022-10-16T20:23:02.634Z,29.15
2022-10-16T20:25:38.725Z,24.30
2022-10-16T20:28:14.513Z,24.75
2022-10-16T20:30:50.065Z,29.30
2022-10-16T20:33:24.070Z,23.80
2022-10-16T20:36:00.795Z,23.65
2022-10-16T20:38:35.480Z,22.15
2022-10-16T20:41:10.068Z,25.97
2022-10-16T20:43:45.246Z,27.15
2022-10-16T20:46:20.173Z,20.60
2022-10-16T20:48:54.312Z,22.98
2022-10-16T20:51:32.062Z,26.00
2022-10-16T20:54:05.246Z,25.20
2022-10-16T20:56:39.734Z,22.30
2022-10-16T20:59:14.421Z,20.00
2022-10-16T21:01:49.342Z,23.40
2022-10-16T21:04:22.477Z,25.00
2022-10-16T21:07:00.469Z,19.20
2022-10-16T21:09:35.690Z,19.23
2022-10-16T21:12:13.185Z,18.45
2022-10-16T21:15:12.923Z,24.20
2022-10-16T21:17:42.281Z,21.88
2022-10-16T21:20:16.144Z,28.25
2022-10-16T21:22:52.827Z,24.17
2022-10-16T21:25:27.480Z,21.88
2022-10-16T21:28:02.304Z,23.15
2022-10-16T21:30:36.215Z,24.90
2022-10-16T21:33:10.418Z,23.40
2022-10-16T21:35:46.016Z,30.30
2022-10-16T21:38:23.634Z,23.73
2022-10-16T21:40:57.866Z,26.85
2022-10-16T21:43:32.418Z,26.90
2022-10-16T21:46:07.745Z,22.93
2022-10-16T21:48:43.276Z,18.98
2022-10-16T21:51:17.348Z,20.30
2022-10-16T21:53:55.309Z,24.88
2022-10-16T21:56:29.204Z,20.30
2022-10-16T21:59:03.040Z,22.23
2022-10-16T22:01:37.381Z,32.42
2022-10-16T22:04:13.462Z,29.23
2022-10-16T22:06:48.434Z,28.15
2022-10-16T22:09:28.541Z,31.33
2022-10-16T22:12:03.207Z,32.97
2022-10-16T22:14:36.956Z,31.30
2022-10-16T22:17:11.258Z,26.15
2022-10-16T22:19:45.098Z,34.50
2022-10-16T22:22:19.093Z,26.20
2022-10-16T22:24:56.075Z,29.90
2022-10-16T22:27:30.508Z,26.40
2022-10-16T22:30:05.085Z,30.23
2022-10-16T22:32:39.242Z,33.95
2022-10-16T22:35:13.521Z,31.90
2022-10-16T22:37:45.969Z,33.83
2022-10-16T22:40:22.606Z,35.80
2022-10-16T22:42:58.124Z,33.30
2022-10-16T22:45:32.275Z,28.03
2022-10-16T22:48:06.080Z,36.10
2022-10-16T22:50:40.067Z,42.23
2022-10-16T22:53:14.367Z,29.57
2022-10-16T22:55:50.536Z,32.63
2022-10-16T22:58:25.274Z,39.75
2022-10-16T23:00:59.008Z,34.53
2022-10-16T23:03:33.437Z,29.58
2022-10-16T23:06:08.663Z,34.05
2022-10-16T23:08:43.115Z,39.20
2022-10-16T23:11:19.993Z,33.13
2022-10-16T23:13:54.360Z,32.60
2022-10-16T23:16:28.201Z,30.10
2022-10-16T23:19:05.038Z,27.88
2022-10-16T23:21:37.302Z,31.90
2022-10-16T23:24:11.641Z,29.25
2022-10-16T23:26:48.671Z,35.15
2022-10-16T23:29:23.127Z,28.80
2022-10-16T23:31:57.269Z,29.38
2022-10-16T23:34:31.362Z,30.27
2022-10-16T23:37:03.958Z,32.58
2022-10-16T23:39:38.137Z,45.20
2022-10-16T23:42:15.007Z,47.88
2022-10-16T23:44:49.497Z,48.45
2022-10-16T23:47:22.770Z,40.33
2022-10-16T23:49:56.952Z,39.42
2022-10-16T23:52:31.158Z,40.75
2022-10-16T23:55:05.158Z,43.25
2022-10-16T23:57:42.352Z,34.35
